sensor_id;sensor_type;location;lat;lon;timestamp;P1;durP1;ratioP1;P2;durP2;ratioP2
68910;SDS011;55953;51.650;-0.522;2022-11-15T00:00:50;6.80;;;2.20;;
68910;SDS011;55953;51.650;-0.522;2022-11-15T00:03:37;7.70;;;2.50;;
68910;SDS011;55953;51.650;-0.522;2022-11-15T00:06:23;6.20;;;1.80;;
68910;SDS011;55953;51.650;-0.522;2022-11-15T00:09:09;6.60;;;1.80;;
68910;SDS011;55953;51.650;-0.522;2022-11-15T00:11:56;9.70;;;2.60;;
68910;SDS011;55953;51.650;-0.522;2022-11-15T00:14:42;9.40;;;2.10;;
68910;SDS011;55953;51.650;-0.522;2022-11-15T00:17:29;8.10;;;2.00;;
68910;SDS011;55953;51.650;-0.522;2022-11-15T00:20:17;9.60;;;2.30;;
68910;SDS011;55953;51.650;-0.522;2022-11-15T00:23:04;10.70;;;2.60;;
68910;SDS011;55953;51.650;-0.522;2022-11-15T00:25:58;8.40;;;2.20;;
68910;SDS011;55953;51.650;-0.522;2022-11-15T00:28:45;11.50;;;2.20;;
68910;SDS011;55953;51.650;-0.522;2022-11-15T00:31:31;10.00;;;2.30;;
68910;SDS011;55953;51.650;-0.522;2022-11-15T00:34:17;7.10;;;2.10;;
68910;SDS011;55953;51.650;-0.522;2022-11-15T00:37:04;7.50;;;2.20;;
68910;SDS011;55953;51.650;-0.522;2022-11-15T00:39:52;9.50;;;2.40;;
68910;SDS011;55953;51.650;-0.522;2022-11-15T00:42:38;8.60;;;2.30;;
68910;SDS011;55953;51.650;-0.522;2022-11-15T00:45:26;11.10;;;2.80;;
68910;SDS011;55953;51.650;-0.522;2022-11-15T00:48:12;8.20;;;2.30;;
68910;SDS011;55953;51.650;-0.522;2022-11-15T00:50:59;8.60;;;2.30;;
68910;SDS011;55953;51.650;-0.522;2022-11-15T00:53:45;10.40;;;2.30;;
68910;SDS011;55953;51.650;-0.522;2022-11-15T00:56:31;13.70;;;2.60;;
68910;SDS011;55953;51.650;-0.522;2022-11-15T00:59:18;9.70;;;2.70;;
68910;SDS011;55953;51.650;-0.522;2022-11-15T01:02:04;10.50;;;2.60;;
68910;SDS011;55953;51.650;-0.522;2022-11-15T01:04:50;9.40;;;2.50;;
68910;SDS011;55953;51.650;-0.522;2022-11-15T01:07:37;12.20;;;2.40;;
68910;SDS011;55953;51.650;-0.522;2022-11-15T01:10:23;9.40;;;2.70;;
68910;SDS011;55953;51.650;-0.522;2022-11-15T01:13:11;9.30;;;2.90;;
68910;SDS011;55953;51.650;-0.522;2022-11-15T01:15:58;9.90;;;2.70;;
68910;SDS011;55953;51.650;-0.522;2022-11-15T01:18:45;9.20;;;3.50;;
68910;SDS011;55953;51.650;-0.522;2022-11-15T01:21:32;11.90;;;3.10;;
68910;SDS011;55953;51.650;-0.522;2022-11-15T01:24:18;10.60;;;3.30;;
68910;SDS011;55953;51.650;-0.522;2022-11-15T01:27:05;10.80;;;3.30;;
68910;SDS011;55953;51.650;-0.522;2022-11-15T01:29:51;7.90;;;2.90;;
68910;SDS011;55953;51.650;-0.522;2022-11-15T01:32:37;13.00;;;3.50;;
68910;SDS011;55953;51.650;-0.522;2022-11-15T01:35:24;15.20;;;3.20;;
68910;SDS011;55953;51.650;-0.522;2022-11-15T01:38:10;13.70;;;3.60;;
68910;SDS011;55953;51.650;-0.522;2022-11-15T01:40:56;12.20;;;3.30;;
68910;SDS011;55953;51.650;-0.522;2022-11-15T01:43:43;10.80;;;3.20;;
68910;SDS011;55953;51.650;-0.522;2022-11-15T01:46:34;16.40;;;3.80;;
68910;SDS011;55953;51.650;-0.522;2022-11-15T01:49:23;12.40;;;2.90;;
68910;SDS011;55953;51.650;-0.522;2022-11-15T01:52:14;14.50;;;3.20;;
68910;SDS011;55953;51.650;-0.522;2022-11-15T01:55:09;12.60;;;3.10;;
68910;SDS011;55953;51.650;-0.522;2022-11-15T01:58:07;12.70;;;3.00;;
68910;SDS011;55953;51.650;-0.522;2022-11-15T02:00:54;9.60;;;3.00;;
68910;SDS011;55953;51.650;-0.522;2022-11-15T02:03:55;16.90;;;3.20;;
68910;SDS011;55953;51.650;-0.522;2022-11-15T02:06:46;12.70;;;3.30;;
68910;SDS011;55953;51.650;-0.522;2022-11-15T02:09:36;10.90;;;3.20;;
68910;SDS011;55953;51.650;-0.522;2022-11-15T02:12:23;12.40;;;3.40;;
68910;SDS011;55953;51.650;-0.522;2022-11-15T02:15:10;11.60;;;2.80;;
68910;SDS011;55953;51.650;-0.522;2022-11-15T02:18:14;10.50;;;3.50;;
68910;SDS011;55953;51.650;-0.522;2022-11-15T02:21:25;11.30;;;3.80;;
68910;SDS011;55953;51.650;-0.522;2022-11-15T02:24:31;21.30;;;4.30;;
68910;SDS011;55953;51.650;-0.522;2022-11-15T02:30:43;13.30;;;4.20;;
68910;SDS011;55953;51.650;-0.522;2022-11-15T02:33:41;17.40;;;3.90;;
68910;SDS011;55953;51.650;-0.522;2022-11-15T02:36:47;19.80;;;4.10;;
68910;SDS011;55953;51.650;-0.522;2022-11-15T02:39:55;17.40;;;4.20;;
68910;SDS011;55953;51.650;-0.522;2022-11-15T02:42:57;14.90;;;3.60;;
68910;SDS011;55953;51.650;-0.522;2022-11-15T02:46:15;9.90;;;2.80;;
68910;SDS011;55953;51.650;-0.522;2022-11-15T02:49:32;13.30;;;3.30;;
68910;SDS011;55953;51.650;-0.522;2022-11-15T02:52:22;11.00;;;2.40;;
68910;SDS011;55953;51.650;-0.522;2022-11-15T02:55:28;7.10;;;2.60;;
68910;SDS011;55953;51.650;-0.522;2022-11-15T03:02:21;14.70;;;2.40;;
68910;SDS011;55953;51.650;-0.522;2022-11-15T03:05:50;15.40;;;2.00;;
68910;SDS011;55953;51.650;-0.522;2022-11-15T03:09:03;9.70;;;1.80;;
68910;SDS011;55953;51.650;-0.522;2022-11-15T03:12:18;7.20;;;1.30;;
68910;SDS011;55953;51.650;-0.522;2022-11-15T03:15:21;10.10;;;1.50;;
68910;SDS011;55953;51.650;-0.522;2022-11-15T03:18:38;12.10;;;1.40;;
68910;SDS011;55953;51.650;-0.522;2022-11-15T03:21:28;7.70;;;1.40;;
68910;SDS011;55953;51.650;-0.522;2022-11-15T03:24:19;8.80;;;1.90;;
68910;SDS011;55953;51.650;-0.522;2022-11-15T03:27:15;9.70;;;1.30;;
68910;SDS011;55953;51.650;-0.522;2022-11-15T03:30:07;10.40;;;1.60;;
68910;SDS011;55953;51.650;-0.522;2022-11-15T03:32:57;12.40;;;2.20;;
68910;SDS011;55953;51.650;-0.522;2022-11-15T03:35:47;18.30;;;2.30;;
68910;SDS011;55953;51.650;-0.522;2022-11-15T03:38:35;9.20;;;1.30;;
68910;SDS011;55953;51.650;-0.522;2022-11-15T03:41:39;7.70;;;1.60;;
68910;SDS011;55953;51.650;-0.522;2022-11-15T03:48:06;13.50;;;2.00;;
68910;SDS011;55953;51.650;-0.522;2022-11-15T03:50:57;9.70;;;1.60;;
68910;SDS011;55953;51.650;-0.522;2022-11-15T03:53:43;12.70;;;1.60;;
68910;SDS011;55953;51.650;-0.522;2022-11-15T03:56:30;8.40;;;1.30;;
68910;SDS011;55953;51.650;-0.522;2022-11-15T03:59:17;10.80;;;1.80;;
68910;SDS011;55953;51.650;-0.522;2022-11-15T04:02:03;10.20;;;2.20;;
68910;SDS011;55953;51.650;-0.522;2022-11-15T04:04:49;7.10;;;1.70;;
68910;SDS011;55953;51.650;-0.522;2022-11-15T04:07:36;9.80;;;2.30;;
68910;SDS011;55953;51.650;-0.522;2022-11-15T04:10:22;12.00;;;2.00;;
68910;SDS011;55953;51.650;-0.522;2022-11-15T04:13:09;13.00;;;2.30;;
68910;SDS011;55953;51.650;-0.522;2022-11-15T04:15:55;11.10;;;2.10;;
68910;SDS011;55953;51.650;-0.522;2022-11-15T04:18:41;13.30;;;1.90;;
68910;SDS011;55953;51.650;-0.522;2022-11-15T04:21:28;14.40;;;2.00;;
68910;SDS011;55953;51.650;-0.522;2022-11-15T04:24:33;12.20;;;2.10;;
68910;SDS011;55953;51.650;-0.522;2022-11-15T04:27:20;9.60;;;1.90;;
68910;SDS011;55953;51.650;-0.522;2022-11-15T04:30:06;20.00;;;3.10;;
68910;SDS011;55953;51.650;-0.522;2022-11-15T04:32:53;14.50;;;2.50;;
68910;SDS011;55953;51.650;-0.522;2022-11-15T04:35:40;10.40;;;1.90;;
68910;SDS011;55953;51.650;-0.522;2022-11-15T04:38:27;14.70;;;2.30;;
68910;SDS011;55953;51.650;-0.522;2022-11-15T04:41:13;18.60;;;2.20;;
68910;SDS011;55953;51.650;-0.522;2022-11-15T04:44:00;8.60;;;1.90;;
68910;SDS011;55953;51.650;-0.522;2022-11-15T04:46:46;12.70;;;1.90;;
68910;SDS011;55953;51.650;-0.522;2022-11-15T04:49:32;15.40;;;2.20;;
68910;SDS011;55953;51.650;-0.522;2022-11-15T04:52:19;9.60;;;1.40;;
68910;SDS011;55953;51.650;-0.522;2022-11-15T04:55:05;10.50;;;1.70;;
68910;SDS011;55953;51.650;-0.522;2022-11-15T04:58:00;12.50;;;2.20;;
68910;SDS011;55953;51.650;-0.522;2022-11-15T05:00:48;8.40;;;1.60;;
68910;SDS011;55953;51.650;-0.522;2022-11-15T05:03:35;15.20;;;2.10;;
68910;SDS011;55953;51.650;-0.522;2022-11-15T05:06:40;12.90;;;1.90;;
68910;SDS011;55953;51.650;-0.522;2022-11-15T05:09:26;9.80;;;1.50;;
68910;SDS011;55953;51.650;-0.522;2022-11-15T05:12:13;9.80;;;1.40;;
68910;SDS011;55953;51.650;-0.522;2022-11-15T05:14:59;9.30;;;1.70;;
68910;SDS011;55953;51.650;-0.522;2022-11-15T05:17:45;13.20;;;2.00;;
68910;SDS011;55953;51.650;-0.522;2022-11-15T05:20:32;8.30;;;1.90;;
68910;SDS011;55953;51.650;-0.522;2022-11-15T05:23:18;15.40;;;2.50;;
68910;SDS011;55953;51.650;-0.522;2022-11-15T05:26:06;11.70;;;1.80;;
68910;SDS011;55953;51.650;-0.522;2022-11-15T05:28:55;12.50;;;2.10;;
68910;SDS011;55953;51.650;-0.522;2022-11-15T05:31:43;15.00;;;2.20;;
68910;SDS011;55953;51.650;-0.522;2022-11-15T05:34:30;14.70;;;2.40;;
68910;SDS011;55953;51.650;-0.522;2022-11-15T05:37:17;11.10;;;1.70;;
68910;SDS011;55953;51.650;-0.522;2022-11-15T05:40:05;11.40;;;1.50;;
68910;SDS011;55953;51.650;-0.522;2022-11-15T05:42:52;15.10;;;2.00;;
68910;SDS011;55953;51.650;-0.522;2022-11-15T05:45:38;13.50;;;1.90;;
68910;SDS011;55953;51.650;-0.522;2022-11-15T05:48:25;12.50;;;1.80;;
68910;SDS011;55953;51.650;-0.522;2022-11-15T05:51:12;8.20;;;1.50;;
68910;SDS011;55953;51.650;-0.522;2022-11-15T05:54:01;9.10;;;1.70;;
68910;SDS011;55953;51.650;-0.522;2022-11-15T05:56:49;11.50;;;2.20;;
68910;SDS011;55953;51.650;-0.522;2022-11-15T05:59:36;10.90;;;1.50;;
68910;SDS011;55953;51.650;-0.522;2022-11-15T06:02:24;11.00;;;1.70;;
68910;SDS011;55953;51.650;-0.522;2022-11-15T06:05:10;12.30;;;1.60;;
68910;SDS011;55953;51.650;-0.522;2022-11-15T06:07:57;15.70;;;2.20;;
68910;SDS011;55953;51.650;-0.522;2022-11-15T06:10:45;13.30;;;2.10;;
68910;SDS011;55953;51.650;-0.522;2022-11-15T06:13:31;17.00;;;2.00;;
68910;SDS011;55953;51.650;-0.522;2022-11-15T06:16:19;12.60;;;2.10;;
68910;SDS011;55953;51.650;-0.522;2022-11-15T06:19:06;9.80;;;1.70;;
68910;SDS011;55953;51.650;-0.522;2022-11-15T06:21:53;14.40;;;2.30;;
68910;SDS011;55953;51.650;-0.522;2022-11-15T06:24:39;11.70;;;2.10;;
68910;SDS011;55953;51.650;-0.522;2022-11-15T06:27:26;11.70;;;1.80;;
68910;SDS011;55953;51.650;-0.522;2022-11-15T06:30:13;15.10;;;3.00;;
68910;SDS011;55953;51.650;-0.522;2022-11-15T06:33:04;11.60;;;2.10;;
68910;SDS011;55953;51.650;-0.522;2022-11-15T06:35:51;11.10;;;1.80;;
68910;SDS011;55953;51.650;-0.522;2022-11-15T06:38:38;12.00;;;2.40;;
68910;SDS011;55953;51.650;-0.522;2022-11-15T06:41:24;12.50;;;1.80;;
68910;SDS011;55953;51.650;-0.522;2022-11-15T06:44:10;13.80;;;2.10;;
68910;SDS011;55953;51.650;-0.522;2022-11-15T06:46:56;7.40;;;1.70;;
68910;SDS011;55953;51.650;-0.522;2022-11-15T06:49:43;14.50;;;2.00;;
68910;SDS011;55953;51.650;-0.522;2022-11-15T06:52:29;13.30;;;2.70;;
68910;SDS011;55953;51.650;-0.522;2022-11-15T06:55:18;7.70;;;1.90;;
68910;SDS011;55953;51.650;-0.522;2022-11-15T06:58:05;13.10;;;1.90;;
68910;SDS011;55953;51.650;-0.522;2022-11-15T07:00:51;11.70;;;1.80;;
68910;SDS011;55953;51.650;-0.522;2022-11-15T07:03:41;9.10;;;1.90;;
68910;SDS011;55953;51.650;-0.522;2022-11-15T07:06:28;12.70;;;2.00;;
68910;SDS011;55953;51.650;-0.522;2022-11-15T07:09:15;8.80;;;1.70;;
68910;SDS011;55953;51.650;-0.522;2022-11-15T07:12:01;6.90;;;2.30;;
68910;SDS011;55953;51.650;-0.522;2022-11-15T07:17:39;14.20;;;2.40;;
68910;SDS011;55953;51.650;-0.522;2022-11-15T07:20:25;9.50;;;1.60;;
68910;SDS011;55953;51.650;-0.522;2022-11-15T07:23:12;7.30;;;1.70;;
68910;SDS011;55953;51.650;-0.522;2022-11-15T07:25:58;9.20;;;1.70;;
68910;SDS011;55953;51.650;-0.522;2022-11-15T07:28:46;10.60;;;1.80;;
68910;SDS011;55953;51.650;-0.522;2022-11-15T07:31:33;7.90;;;2.20;;
68910;SDS011;55953;51.650;-0.522;2022-11-15T07:34:19;14.00;;;2.40;;
68910;SDS011;55953;51.650;-0.522;2022-11-15T07:37:05;8.30;;;1.80;;
68910;SDS011;55953;51.650;-0.522;2022-11-15T07:39:52;9.00;;;1.50;;
68910;SDS011;55953;51.650;-0.522;2022-11-15T07:42:38;7.60;;;1.60;;
68910;SDS011;55953;51.650;-0.522;2022-11-15T07:45:45;8.80;;;1.60;;
68910;SDS011;55953;51.650;-0.522;2022-11-15T07:48:31;7.00;;;2.30;;
68910;SDS011;55953;51.650;-0.522;2022-11-15T07:51:29;7.20;;;1.90;;
68910;SDS011;55953;51.650;-0.522;2022-11-15T07:54:15;9.70;;;2.20;;
68910;SDS011;55953;51.650;-0.522;2022-11-15T07:57:03;5.50;;;1.90;;
68910;SDS011;55953;51.650;-0.522;2022-11-15T07:59:53;7.30;;;2.60;;
68910;SDS011;55953;51.650;-0.522;2022-11-15T08:02:39;9.50;;;2.40;;
68910;SDS011;55953;51.650;-0.522;2022-11-15T08:05:27;6.70;;;1.70;;
68910;SDS011;55953;51.650;-0.522;2022-11-15T08:08:13;6.50;;;1.80;;
68910;SDS011;55953;51.650;-0.522;2022-11-15T08:11:00;10.10;;;2.00;;
68910;SDS011;55953;51.650;-0.522;2022-11-15T08:13:47;8.50;;;1.80;;
68910;SDS011;55953;51.650;-0.522;2022-11-15T08:16:33;6.20;;;1.70;;
68910;SDS011;55953;51.650;-0.522;2022-11-15T08:19:19;4.90;;;1.60;;
68910;SDS011;55953;51.650;-0.522;2022-11-15T08:22:07;6.00;;;1.80;;
68910;SDS011;55953;51.650;-0.522;2022-11-15T08:24:54;5.10;;;1.70;;
68910;SDS011;55953;51.650;-0.522;2022-11-15T08:27:40;5.50;;;1.90;;
68910;SDS011;55953;51.650;-0.522;2022-11-15T08:30:27;4.50;;;1.50;;
68910;SDS011;55953;51.650;-0.522;2022-11-15T08:33:14;8.80;;;1.60;;
68910;SDS011;55953;51.650;-0.522;2022-11-15T08:36:00;4.00;;;1.30;;
68910;SDS011;55953;51.650;-0.522;2022-11-15T08:38:47;4.20;;;1.10;;
68910;SDS011;55953;51.650;-0.522;2022-11-15T08:41:36;5.40;;;1.50;;
68910;SDS011;55953;51.650;-0.522;2022-11-15T08:44:23;4.70;;;1.40;;
68910;SDS011;55953;51.650;-0.522;2022-11-15T08:47:11;3.30;;;1.70;;
68910;SDS011;55953;51.650;-0.522;2022-11-15T08:49:58;5.20;;;1.20;;
68910;SDS011;55953;51.650;-0.522;2022-11-15T08:52:45;7.30;;;1.70;;
68910;SDS011;55953;51.650;-0.522;2022-11-15T08:55:38;2.90;;;1.10;;
68910;SDS011;55953;51.650;-0.522;2022-11-15T08:58:26;2.60;;;1.10;;
68910;SDS011;55953;51.650;-0.522;2022-11-15T09:01:16;15.80;;;11.10;;
68910;SDS011;55953;51.650;-0.522;2022-11-15T09:04:04;5.30;;;2.50;;
68910;SDS011;55953;51.650;-0.522;2022-11-15T09:06:51;3.40;;;1.40;;
68910;SDS011;55953;51.650;-0.522;2022-11-15T09:09:38;6.90;;;3.50;;
68910;SDS011;55953;51.650;-0.522;2022-11-15T09:12:25;5.70;;;1.90;;
68910;SDS011;55953;51.650;-0.522;2022-11-15T09:15:12;5.10;;;1.20;;
68910;SDS011;55953;51.650;-0.522;2022-11-15T09:17:58;3.40;;;1.20;;
68910;SDS011;55953;51.650;-0.522;2022-11-15T09:20:45;5.80;;;1.10;;
68910;SDS011;55953;51.650;-0.522;2022-11-15T09:23:31;5.40;;;1.00;;
68910;SDS011;55953;51.650;-0.522;2022-11-15T09:26:18;2.70;;;1.00;;
68910;SDS011;55953;51.650;-0.522;2022-11-15T09:29:04;5.30;;;1.10;;
68910;SDS011;55953;51.650;-0.522;2022-11-15T09:31:54;4.30;;;1.10;;
68910;SDS011;55953;51.650;-0.522;2022-11-15T09:34:40;2.20;;;1.00;;
68910;SDS011;55953;51.650;-0.522;2022-11-15T09:37:27;4.60;;;1.00;;
68910;SDS011;55953;51.650;-0.522;2022-11-15T09:40:15;5.00;;;2.90;;
68910;SDS011;55953;51.650;-0.522;2022-11-15T09:43:10;5.50;;;1.90;;
68910;SDS011;55953;51.650;-0.522;2022-11-15T09:49:03;7.00;;;1.10;;
68910;SDS011;55953;51.650;-0.522;2022-11-15T09:51:53;3.80;;;1.20;;
68910;SDS011;55953;51.650;-0.522;2022-11-15T09:54:31;5.50;;;1.90;;
68910;SDS011;55953;51.650;-0.522;2022-11-15T09:57:32;7.00;;;1.10;;
68910;SDS011;55953;51.650;-0.522;2022-11-15T10:00:16;4.50;;;1.00;;
68910;SDS011;55953;51.650;-0.522;2022-11-15T10:03:16;3.50;;;1.20;;
68910;SDS011;55953;51.650;-0.522;2022-11-15T10:06:09;3.60;;;1.10;;
68910;SDS011;55953;51.650;-0.522;2022-11-15T10:11:49;6.10;;;2.40;;
68910;SDS011;55953;51.650;-0.522;2022-11-15T10:14:20;4.80;;;1.50;;
68910;SDS011;55953;51.650;-0.522;2022-11-15T10:22:48;4.30;;;1.10;;
68910;SDS011;55953;51.650;-0.522;2022-11-15T10:25:31;6.40;;;1.10;;
68910;SDS011;55953;51.650;-0.522;2022-11-15T10:31:21;4.00;;;1.30;;
68910;SDS011;55953;51.650;-0.522;2022-11-15T10:37:00;4.70;;;1.10;;
68910;SDS011;55953;51.650;-0.522;2022-11-15T10:39:30;4.60;;;1.30;;
68910;SDS011;55953;51.650;-0.522;2022-11-15T10:42:26;4.40;;;1.10;;
68910;SDS011;55953;51.650;-0.522;2022-11-15T10:44:56;4.80;;;1.30;;
68910;SDS011;55953;51.650;-0.522;2022-11-15T10:47:30;6.40;;;1.20;;
68910;SDS011;55953;51.650;-0.522;2022-11-15T10:50:26;10.70;;;2.00;;
68910;SDS011;55953;51.650;-0.522;2022-11-15T10:52:59;6.70;;;1.50;;
68910;SDS011;55953;51.650;-0.522;2022-11-15T10:55:31;10.00;;;1.50;;
68910;SDS011;55953;51.650;-0.522;2022-11-15T10:58:18;7.10;;;2.20;;
68910;SDS011;55953;51.650;-0.522;2022-11-15T11:00:52;6.40;;;1.20;;
68910;SDS011;55953;51.650;-0.522;2022-11-15T11:03:28;5.60;;;1.40;;
68910;SDS011;55953;51.650;-0.522;2022-11-15T11:06:16;7.00;;;1.30;;
68910;SDS011;55953;51.650;-0.522;2022-11-15T11:08:55;5.90;;;1.40;;
68910;SDS011;55953;51.650;-0.522;2022-11-15T11:11:44;4.80;;;1.80;;
68910;SDS011;55953;51.650;-0.522;2022-11-15T11:20:24;7.60;;;1.50;;
68910;SDS011;55953;51.650;-0.522;2022-11-15T11:23:35;6.00;;;1.10;;
68910;SDS011;55953;51.650;-0.522;2022-11-15T11:26:18;5.00;;;1.10;;
68910;SDS011;55953;51.650;-0.522;2022-11-15T11:35:29;3.20;;;1.00;;
68910;SDS011;55953;51.650;-0.522;2022-11-15T11:38:24;6.60;;;1.40;;
68910;SDS011;55953;51.650;-0.522;2022-11-15T11:41:15;2.60;;;1.00;;
68910;SDS011;55953;51.650;-0.522;2022-11-15T11:46:59;5.50;;;1.80;;
68910;SDS011;55953;51.650;-0.522;2022-11-15T11:49:46;4.30;;;1.20;;
68910;SDS011;55953;51.650;-0.522;2022-11-15T11:52:25;5.20;;;1.40;;
68910;SDS011;55953;51.650;-0.522;2022-11-15T11:55:10;9.80;;;1.70;;
68910;SDS011;55953;51.650;-0.522;2022-11-15T11:57:46;3.70;;;1.00;;
68910;SDS011;55953;51.650;-0.522;2022-11-15T12:00:22;8.30;;;3.00;;
68910;SDS011;55953;51.650;-0.522;2022-11-15T12:03:26;4.70;;;1.10;;
68910;SDS011;55953;51.650;-0.522;2022-11-15T12:06:04;6.50;;;1.20;;
68910;SDS011;55953;51.650;-0.522;2022-11-15T12:09:07;5.00;;;1.80;;
68910;SDS011;55953;51.650;-0.522;2022-11-15T12:15:02;5.30;;;1.60;;
68910;SDS011;55953;51.650;-0.522;2022-11-15T12:17:38;3.30;;;1.40;;
68910;SDS011;55953;51.650;-0.522;2022-11-15T12:22:57;4.20;;;1.40;;
68910;SDS011;55953;51.650;-0.522;2022-11-15T12:25:40;5.90;;;1.20;;
68910;SDS011;55953;51.650;-0.522;2022-11-15T12:28:29;4.10;;;1.20;;
68910;SDS011;55953;51.650;-0.522;2022-11-15T12:31:19;3.70;;;1.20;;
68910;SDS011;55953;51.650;-0.522;2022-11-15T12:33:55;3.30;;;1.20;;
68910;SDS011;55953;51.650;-0.522;2022-11-15T12:36:37;6.30;;;1.60;;
68910;SDS011;55953;51.650;-0.522;2022-11-15T12:39:13;5.20;;;1.30;;
68910;SDS011;55953;51.650;-0.522;2022-11-15T12:41:44;4.90;;;1.10;;
68910;SDS011;55953;51.650;-0.522;2022-11-15T12:47:23;5.40;;;1.80;;
68910;SDS011;55953;51.650;-0.522;2022-11-15T12:49:53;4.40;;;1.50;;
68910;SDS011;55953;51.650;-0.522;2022-11-15T12:52:21;10.60;;;7.50;;
68910;SDS011;55953;51.650;-0.522;2022-11-15T12:54:52;6.00;;;1.80;;
68910;SDS011;55953;51.650;-0.522;2022-11-15T12:57:28;6.90;;;2.00;;
68910;SDS011;55953;51.650;-0.522;2022-11-15T13:00:00;8.60;;;2.70;;
68910;SDS011;55953;51.650;-0.522;2022-11-15T13:02:39;11.70;;;1.60;;
68910;SDS011;55953;51.650;-0.522;2022-11-15T13:08:03;9.80;;;2.20;;
68910;SDS011;55953;51.650;-0.522;2022-11-15T13:10:33;5.90;;;1.60;;
68910;SDS011;55953;51.650;-0.522;2022-11-15T13:13:08;8.50;;;1.40;;
68910;SDS011;55953;51.650;-0.522;2022-11-15T13:15:53;4.90;;;1.20;;
68910;SDS011;55953;51.650;-0.522;2022-11-15T13:21:00;6.00;;;1.80;;
68910;SDS011;55953;51.650;-0.522;2022-11-15T13:23:30;5.90;;;1.40;;
68910;SDS011;55953;51.650;-0.522;2022-11-15T13:26:08;5.90;;;1.20;;
68910;SDS011;55953;51.650;-0.522;2022-11-15T13:33:53;12.10;;;1.80;;
68910;SDS011;55953;51.650;-0.522;2022-11-15T13:36:27;7.50;;;1.50;;
68910;SDS011;55953;51.650;-0.522;2022-11-15T13:39:06;11.30;;;1.50;;
68910;SDS011;55953;51.650;-0.522;2022-11-15T13:41:48;6.60;;;1.30;;
68910;SDS011;55953;51.650;-0.522;2022-11-15T13:44:23;6.30;;;1.40;;
68910;SDS011;55953;51.650;-0.522;2022-11-15T13:47:14;7.20;;;2.10;;
68910;SDS011;55953;51.650;-0.522;2022-11-15T13:49:43;7.50;;;1.60;;
68910;SDS011;55953;51.650;-0.522;2022-11-15T13:52:13;6.90;;;1.90;;
68910;SDS011;55953;51.650;-0.522;2022-11-15T13:54:47;7.10;;;1.30;;
68910;SDS011;55953;51.650;-0.522;2022-11-15T13:57:27;7.20;;;1.50;;
68910;SDS011;55953;51.650;-0.522;2022-11-15T14:00:25;5.20;;;1.50;;
68910;SDS011;55953;51.650;-0.522;2022-11-15T14:05:35;3.20;;;1.00;;
68910;SDS011;55953;51.650;-0.522;2022-11-15T14:08:21;6.30;;;1.10;;
68910;SDS011;55953;51.650;-0.522;2022-11-15T14:11:09;3.50;;;1.00;;
68910;SDS011;55953;51.650;-0.522;2022-11-15T14:14:13;7.00;;;2.10;;
68910;SDS011;55953;51.650;-0.522;2022-11-15T14:16:45;6.70;;;1.60;;
68910;SDS011;55953;51.650;-0.522;2022-11-15T14:25:19;3.90;;;1.10;;
68910;SDS011;55953;51.650;-0.522;2022-11-15T14:30:53;20.20;;;4.50;;
68910;SDS011;55953;51.650;-0.522;2022-11-15T14:36:01;20.70;;;6.20;;
68910;SDS011;55953;51.650;-0.522;2022-11-15T14:38:40;15.10;;;3.80;;
68910;SDS011;55953;51.650;-0.522;2022-11-15T14:41:17;5.20;;;1.20;;
68910;SDS011;55953;51.650;-0.522;2022-11-15T14:43:53;2.70;;;1.20;;
68910;SDS011;55953;51.650;-0.522;2022-11-15T14:46:21;3.00;;;1.00;;
68910;SDS011;55953;51.650;-0.522;2022-11-15T14:48:49;5.00;;;2.20;;
68910;SDS011;55953;51.650;-0.522;2022-11-15T14:51:18;5.40;;;1.40;;
68910;SDS011;55953;51.650;-0.522;2022-11-15T14:53:46;5.40;;;2.30;;
68910;SDS011;55953;51.650;-0.522;2022-11-15T14:56:15;3.40;;;1.10;;
68910;SDS011;55953;51.650;-0.522;2022-11-15T14:58:43;3.50;;;1.20;;
68910;SDS011;55953;51.650;-0.522;2022-11-15T15:01:20;5.60;;;1.90;;
68910;SDS011;55953;51.650;-0.522;2022-11-15T15:03:51;5.10;;;1.00;;
68910;SDS011;55953;51.650;-0.522;2022-11-15T15:06:23;3.50;;;1.00;;
68910;SDS011;55953;51.650;-0.522;2022-11-15T15:08:51;3.30;;;0.80;;
68910;SDS011;55953;51.650;-0.522;2022-11-15T15:11:24;2.40;;;0.70;;
68910;SDS011;55953;51.650;-0.522;2022-11-15T15:13:54;3.70;;;0.80;;
68910;SDS011;55953;51.650;-0.522;2022-11-15T15:16:24;4.20;;;1.20;;
68910;SDS011;55953;51.650;-0.522;2022-11-15T15:18:52;6.20;;;1.10;;
68910;SDS011;55953;51.650;-0.522;2022-11-15T15:21:23;4.60;;;1.00;;
68910;SDS011;55953;51.650;-0.522;2022-11-15T15:23:52;4.70;;;0.90;;
68910;SDS011;55953;51.650;-0.522;2022-11-15T15:26:22;3.40;;;0.80;;
68910;SDS011;55953;51.650;-0.522;2022-11-15T15:28:51;7.80;;;2.00;;
68910;SDS011;55953;51.650;-0.522;2022-11-15T15:31:19;8.20;;;2.90;;
68910;SDS011;55953;51.650;-0.522;2022-11-15T15:33:47;5.20;;;1.10;;
68910;SDS011;55953;51.650;-0.522;2022-11-15T15:36:18;6.20;;;1.60;;
68910;SDS011;55953;51.650;-0.522;2022-11-15T15:38:46;5.50;;;2.10;;
68910;SDS011;55953;51.650;-0.522;2022-11-15T15:41:15;7.70;;;1.90;;
68910;SDS011;55953;51.650;-0.522;2022-11-15T15:43:44;5.00;;;1.70;;
68910;SDS011;55953;51.650;-0.522;2022-11-15T15:46:15;6.80;;;2.30;;
68910;SDS011;55953;51.650;-0.522;2022-11-15T15:48:45;6.60;;;2.10;;
68910;SDS011;55953;51.650;-0.522;2022-11-15T15:51:13;10.70;;;3.00;;
68910;SDS011;55953;51.650;-0.522;2022-11-15T15:53:47;6.30;;;2.40;;
68910;SDS011;55953;51.650;-0.522;2022-11-15T15:56:15;8.10;;;3.10;;
68910;SDS011;55953;51.650;-0.522;2022-11-15T15:58:43;10.00;;;4.30;;
68910;SDS011;55953;51.650;-0.522;2022-11-15T16:01:11;8.60;;;4.50;;
68910;SDS011;55953;51.650;-0.522;2022-11-15T16:03:39;10.20;;;5.10;;
68910;SDS011;55953;51.650;-0.522;2022-11-15T16:06:32;8.10;;;4.00;;
68910;SDS011;55953;51.650;-0.522;2022-11-15T16:09:08;9.30;;;3.40;;
68910;SDS011;55953;51.650;-0.522;2022-11-15T16:11:45;8.10;;;3.20;;
68910;SDS011;55953;51.650;-0.522;2022-11-15T16:14:13;11.40;;;4.20;;
68910;SDS011;55953;51.650;-0.522;2022-11-15T16:16:41;24.70;;;8.60;;
68910;SDS011;55953;51.650;-0.522;2022-11-15T16:19:10;24.40;;;9.40;;
68910;SDS011;55953;51.650;-0.522;2022-11-15T16:21:39;16.60;;;6.30;;
68910;SDS011;55953;51.650;-0.522;2022-11-15T16:24:06;13.10;;;6.30;;
68910;SDS011;55953;51.650;-0.522;2022-11-15T16:26:35;11.10;;;4.20;;
68910;SDS011;55953;51.650;-0.522;2022-11-15T16:29:04;8.10;;;4.00;;
68910;SDS011;55953;51.650;-0.522;2022-11-15T16:31:34;9.40;;;2.90;;
68910;SDS011;55953;51.650;-0.522;2022-11-15T16:34:02;7.00;;;2.40;;
68910;SDS011;55953;51.650;-0.522;2022-11-15T16:36:32;10.00;;;2.70;;
68910;SDS011;55953;51.650;-0.522;2022-11-15T16:39:02;8.70;;;2.50;;
68910;SDS011;55953;51.650;-0.522;2022-11-15T16:41:31;7.10;;;1.90;;
68910;SDS011;55953;51.650;-0.522;2022-11-15T16:43:59;6.50;;;1.90;;
68910;SDS011;55953;51.650;-0.522;2022-11-15T16:46:27;6.30;;;2.10;;
68910;SDS011;55953;51.650;-0.522;2022-11-15T16:48:56;7.90;;;1.60;;
68910;SDS011;55953;51.650;-0.522;2022-11-15T16:51:24;8.30;;;2.20;;
68910;SDS011;55953;51.650;-0.522;2022-11-15T16:53:52;9.60;;;1.80;;
68910;SDS011;55953;51.650;-0.522;2022-11-15T16:56:28;5.50;;;1.40;;
68910;SDS011;55953;51.650;-0.522;2022-11-15T16:58:58;5.10;;;1.70;;
68910;SDS011;55953;51.650;-0.522;2022-11-15T17:01:30;6.20;;;1.40;;
68910;SDS011;55953;51.650;-0.522;2022-11-15T17:04:00;10.50;;;4.10;;
68910;SDS011;55953;51.650;-0.522;2022-11-15T17:06:43;9.30;;;2.00;;
68910;SDS011;55953;51.650;-0.522;2022-11-15T17:09:20;7.70;;;1.70;;
68910;SDS011;55953;51.650;-0.522;2022-11-15T17:11:52;8.70;;;1.60;;
68910;SDS011;55953;51.650;-0.522;2022-11-15T17:14:20;9.60;;;2.10;;
68910;SDS011;55953;51.650;-0.522;2022-11-15T17:16:48;5.30;;;1.50;;
68910;SDS011;55953;51.650;-0.522;2022-11-15T17:19:18;6.60;;;1.60;;
68910;SDS011;55953;51.650;-0.522;2022-11-15T17:21:47;7.20;;;1.80;;
68910;SDS011;55953;51.650;-0.522;2022-11-15T17:24:16;5.90;;;1.90;;
68910;SDS011;55953;51.650;-0.522;2022-11-15T17:26:44;8.20;;;1.90;;
68910;SDS011;55953;51.650;-0.522;2022-11-15T17:29:12;7.30;;;1.50;;